sensor_id;sensor_type;location;lat;lon;timestamp;temperature;humidity
5276;DHT22;2661;50.786;12.728;2024-02-04T00:00:59;7.50;1.00
5276;DHT22;2661;50.786;12.728;2024-02-04T00:03:26;7.60;99.90
5276;DHT22;2661;50.786;12.728;2024-02-04T00:05:53;7.50;1.00
5276;DHT22;2661;50.786;12.728;2024-02-04T00:08:20;7.60;99.90
5276;DHT22;2661;50.786;12.728;2024-02-04T00:10:46;7.50;99.90
5276;DHT22;2661;50.786;12.728;2024-02-04T00:13:13;7.50;1.00
5276;DHT22;2661;50.786;12.728;2024-02-04T00:15:39;7.50;1.00
5276;DHT22;2661;50.786;12.728;2024-02-04T00:18:06;7.50;99.90
5276;DHT22;2661;50.786;12.728;2024-02-04T00:20:33;7.50;99.90
5276;DHT22;2661;50.786;12.728;2024-02-04T00:22:59;7.40;99.90
5276;DHT22;2661;50.786;12.728;2024-02-04T00:25:26;7.40;1.00
5276;DHT22;2661;50.786;12.728;2024-02-04T00:27:53;7.40;1.00
5276;DHT22;2661;50.786;12.728;2024-02-04T00:30:19;7.30;1.00
5276;DHT22;2661;50.786;12.728;2024-02-04T00:32:46;7.30;1.00
5276;DHT22;2661;50.786;12.728;2024-02-04T00:35:13;7.20;14.80
5276;DHT22;2661;50.786;12.728;2024-02-04T00:37:39;7.20;99.90
5276;DHT22;2661;50.786;12.728;2024-02-04T00:40:06;7.20;99.90
5276;DHT22;2661;50.786;12.728;2024-02-04T00:42:33;7.20;99.90
5276;DHT22;2661;50.786;12.728;2024-02-04T00:45:00;7.30;99.90
5276;DHT22;2661;50.786;12.728;2024-02-04T00:47:26;7.20;99.90
5276;DHT22;2661;50.786;12.728;2024-02-04T00:49:53;7.20;99.90
5276;DHT22;2661;50.786;12.728;2024-02-04T00:52:20;7.20;99.90
5276;DHT22;2661;50.786;12.728;2024-02-04T00:54:47;7.20;99.90
5276;DHT22;2661;50.786;12.728;2024-02-04T00:57:13;7.20;99.90
5276;DHT22;2661;50.786;12.728;2024-02-04T00:59:40;7.20;99.90
5276;DHT22;2661;50.786;12.728;2024-02-04T01:02:07;7.20;99.90
5276;DHT22;2661;50.786;12.728;2024-02-04T01:04:33;7.30;99.90
5276;DHT22;2661;50.786;12.728;2024-02-04T01:07:00;7.20;99.90
5276;DHT22;2661;50.786;12.728;2024-02-04T01:09:28;7.20;99.90
5276;DHT22;2661;50.786;12.728;2024-02-04T01:11:55;7.30;99.90
5276;DHT22;2661;50.786;12.728;2024-02-04T01:14:21;7.20;99.90
5276;DHT22;2661;50.786;12.728;2024-02-04T01:16:48;7.20;99.90
5276;DHT22;2661;50.786;12.728;2024-02-04T01:19:14;7.30;99.90
5276;DHT22;2661;50.786;12.728;2024-02-04T01:21:41;7.30;99.90
5276;DHT22;2661;50.786;12.728;2024-02-04T01:24:08;7.30;99.90
5276;DHT22;2661;50.786;12.728;2024-02-04T01:26:34;7.30;99.90
5276;DHT22;2661;50.786;12.728;2024-02-04T01:29:01;7.30;99.90
5276;DHT22;2661;50.786;12.728;2024-02-04T01:31:28;7.30;99.90
5276;DHT22;2661;50.786;12.728;2024-02-04T01:33:54;7.30;99.90
5276;DHT22;2661;50.786;12.728;2024-02-04T01:36:21;7.30;99.90
5276;DHT22;2661;50.786;12.728;2024-02-04T01:38:48;7.30;99.90
5276;DHT22;2661;50.786;12.728;2024-02-04T01:41:15;7.30;99.90
5276;DHT22;2661;50.786;12.728;2024-02-04T01:43:42;7.40;99.90
5276;DHT22;2661;50.786;12.728;2024-02-04T01:46:08;7.40;99.90
5276;DHT22;2661;50.786;12.728;2024-02-04T01:48:36;7.40;99.90
5276;DHT22;2661;50.786;12.728;2024-02-04T01:51:03;7.40;99.90
5276;DHT22;2661;50.786;12.728;2024-02-04T01:53:29;7.30;99.90
5276;DHT22;2661;50.786;12.728;2024-02-04T01:55:58;7.30;99.90
5276;DHT22;2661;50.786;12.728;2024-02-04T01:58:25;7.30;99.90
5276;DHT22;2661;50.786;12.728;2024-02-04T02:00:52;7.30;99.90
5276;DHT22;2661;50.786;12.728;2024-02-04T02:03:19;7.30;99.90
5276;DHT22;2661;50.786;12.728;2024-02-04T02:05:46;7.30;99.90
5276;DHT22;2661;50.786;12.728;2024-02-04T02:08:13;7.30;99.90
5276;DHT22;2661;50.786;12.728;2024-02-04T02:10:39;7.30;99.90
5276;DHT22;2661;50.786;12.728;2024-02-04T02:13:11;7.30;99.90
5276;DHT22;2661;50.786;12.728;2024-02-04T02:15:43;7.30;99.90
5276;DHT22;2661;50.786;12.728;2024-02-04T02:18:47;7.20;99.90
5276;DHT22;2661;50.786;12.728;2024-02-04T02:23:35;7.20;99.90
5276;DHT22;2661;50.786;12.728;2024-02-04T02:26:02;7.20;99.90
5276;DHT22;2661;50.786;12.728;2024-02-04T02:28:30;7.30;83.50
5276;DHT22;2661;50.786;12.728;2024-02-04T02:30:57;7.20;81.90
5276;DHT22;2661;50.786;12.728;2024-02-04T02:33:23;7.20;99.90
5276;DHT22;2661;50.786;12.728;2024-02-04T02:35:51;7.20;99.90
5276;DHT22;2661;50.786;12.728;2024-02-04T02:38:21;7.30;83.50
5276;DHT22;2661;50.786;12.728;2024-02-04T02:40:56;7.30;23.50
5276;DHT22;2661;50.786;12.728;2024-02-04T02:43:24;7.30;1.00
5276;DHT22;2661;50.786;12.728;2024-02-04T02:45:52;7.30;1.00
5276;DHT22;2661;50.786;12.728;2024-02-04T02:48:19;7.40;1.00
5276;DHT22;2661;50.786;12.728;2024-02-04T02:50:47;7.40;1.00
5276;DHT22;2661;50.786;12.728;2024-02-04T02:53:13;7.50;1.00
5276;DHT22;2661;50.786;12.728;2024-02-04T02:55:40;7.50;1.00
5276;DHT22;2661;50.786;12.728;2024-02-04T02:58:07;7.50;1.00
5276;DHT22;2661;50.786;12.728;2024-02-04T03:00:34;7.50;1.00
5276;DHT22;2661;50.786;12.728;2024-02-04T03:03:01;7.50;1.00
5276;DHT22;2661;50.786;12.728;2024-02-04T03:05:28;7.60;1.00
5276;DHT22;2661;50.786;12.728;2024-02-04T03:07:54;7.50;1.00
5276;DHT22;2661;50.786;12.728;2024-02-04T03:10:21;7.50;1.00
5276;DHT22;2661;50.786;12.728;2024-02-04T03:12:47;7.50;1.00
5276;DHT22;2661;50.786;12.728;2024-02-04T03:15:14;7.60;1.00
5276;DHT22;2661;50.786;12.728;2024-02-04T03:17:42;7.50;1.00
5276;DHT22;2661;50.786;12.728;2024-02-04T03:20:10;7.50;1.00
5276;DHT22;2661;50.786;12.728;2024-02-04T03:22:37;7.50;1.00
5276;DHT22;2661;50.786;12.728;2024-02-04T03:25:04;7.50;1.00
5276;DHT22;2661;50.786;12.728;2024-02-04T03:27:31;7.50;1.00
5276;DHT22;2661;50.786;12.728;2024-02-04T03:29:57;7.50;1.00
5276;DHT22;2661;50.786;12.728;2024-02-04T03:32:24;7.50;1.00
5276;DHT22;2661;50.786;12.728;2024-02-04T03:34:51;7.40;1.00
5276;DHT22;2661;50.786;12.728;2024-02-04T03:37:17;7.40;1.00
5276;DHT22;2661;50.786;12.728;2024-02-04T03:39:44;7.40;1.00
5276;DHT22;2661;50.786;12.728;2024-02-04T03:42:11;7.30;1.00
5276;DHT22;2661;50.786;12.728;2024-02-04T03:44:37;7.30;1.00
5276;DHT22;2661;50.786;12.728;2024-02-04T03:47:04;7.30;1.00
5276;DHT22;2661;50.786;12.728;2024-02-04T03:49:31;7.20;1.00
5276;DHT22;2661;50.786;12.728;2024-02-04T03:51:57;7.20;1.00
5276;DHT22;2661;50.786;12.728;2024-02-04T03:54:24;7.20;1.00
5276;DHT22;2661;50.786;12.728;2024-02-04T03:56:51;7.20;1.00
5276;DHT22;2661;50.786;12.728;2024-02-04T03:59:17;7.20;1.00
5276;DHT22;2661;50.786;12.728;2024-02-04T04:01:48;7.20;1.00
5276;DHT22;2661;50.786;12.728;2024-02-04T04:04:15;7.20;1.00
5276;DHT22;2661;50.786;12.728;2024-02-04T04:06:42;7.20;1.00
5276;DHT22;2661;50.786;12.728;2024-02-04T04:09:09;7.20;1.00
5276;DHT22;2661;50.786;12.728;2024-02-04T04:11:36;7.20;1.00
5276;DHT22;2661;50.786;12.728;2024-02-04T04:14:03;7.20;1.00
5276;DHT22;2661;50.786;12.728;2024-02-04T04:16:30;7.20;1.00
5276;DHT22;2661;50.786;12.728;2024-02-04T04:18:56;7.20;1.00
5276;DHT22;2661;50.786;12.728;2024-02-04T04:21:25;7.20;1.00
5276;DHT22;2661;50.786;12.728;2024-02-04T04:23:51;7.30;1.00
5276;DHT22;2661;50.786;12.728;2024-02-04T04:26:18;7.20;1.00
5276;DHT22;2661;50.786;12.728;2024-02-04T04:28:45;7.20;1.00
5276;DHT22;2661;50.786;12.728;2024-02-04T04:31:11;7.30;1.00
5276;DHT22;2661;50.786;12.728;2024-02-04T04:33:38;7.30;1.00
5276;DHT22;2661;50.786;12.728;2024-02-04T04:36:05;7.30;1.00
5276;DHT22;2661;50.786;12.728;2024-02-04T04:38:31;7.30;1.00
5276;DHT22;2661;50.786;12.728;2024-02-04T04:40:58;7.30;1.00
5276;DHT22;2661;50.786;12.728;2024-02-04T04:43:25;7.30;1.00
5276;DHT22;2661;50.786;12.728;2024-02-04T04:45:53;7.30;1.00
5276;DHT22;2661;50.786;12.728;2024-02-04T04:48:20;7.30;1.00
5276;DHT22;2661;50.786;12.728;2024-02-04T04:50:46;7.30;1.00
5276;DHT22;2661;50.786;12.728;2024-02-04T04:53:13;7.30;1.00
5276;DHT22;2661;50.786;12.728;2024-02-04T04:55:39;7.40;1.00
5276;DHT22;2661;50.786;12.728;2024-02-04T04:58:06;7.40;1.00
5276;DHT22;2661;50.786;12.728;2024-02-04T05:00:33;7.40;1.00
5276;DHT22;2661;50.786;12.728;2024-02-04T05:02:59;7.40;1.00
5276;DHT22;2661;50.786;12.728;2024-02-04T05:05:27;7.50;99.90
5276;DHT22;2661;50.786;12.728;2024-02-04T05:07:53;7.40;99.90
5276;DHT22;2661;50.786;12.728;2024-02-04T05:10:20;7.40;99.90
5276;DHT22;2661;50.786;12.728;2024-02-04T05:12:47;7.40;99.90
5276;DHT22;2661;50.786;12.728;2024-02-04T05:15:13;7.50;99.90
5276;DHT22;2661;50.786;12.728;2024-02-04T05:17:40;7.50;99.90
5276;DHT22;2661;50.786;12.728;2024-02-04T05:20:07;7.50;99.90
5276;DHT22;2661;50.786;12.728;2024-02-04T05:22:34;7.50;64.30
5276;DHT22;2661;50.786;12.728;2024-02-04T05:25:00;7.60;1.00
5276;DHT22;2661;50.786;12.728;2024-02-04T05:27:27;7.60;99.90
5276;DHT22;2661;50.786;12.728;2024-02-04T05:29:54;7.70;26.80
5276;DHT22;2661;50.786;12.728;2024-02-04T05:32:21;7.70;1.00
5276;DHT22;2661;50.786;12.728;2024-02-04T05:34:48;7.70;99.90
5276;DHT22;2661;50.786;12.728;2024-02-04T05:37:15;7.80;50.10
5276;DHT22;2661;50.786;12.728;2024-02-04T05:39:41;7.80;1.00
5276;DHT22;2661;50.786;12.728;2024-02-04T05:42:08;7.80;99.90
5276;DHT22;2661;50.786;12.728;2024-02-04T05:44:34;7.90;99.90
5276;DHT22;2661;50.786;12.728;2024-02-04T05:47:01;7.90;99.90
5276;DHT22;2661;50.786;12.728;2024-02-04T05:49:28;7.90;99.90
5276;DHT22;2661;50.786;12.728;2024-02-04T05:51:55;7.90;99.90
5276;DHT22;2661;50.786;12.728;2024-02-04T05:54:21;7.90;99.90
5276;DHT22;2661;50.786;12.728;2024-02-04T05:56:48;7.80;99.90
5276;DHT22;2661;50.786;12.728;2024-02-04T05:59:14;7.90;99.90
5276;DHT22;2661;50.786;12.728;2024-02-04T06:01:42;7.90;99.90
5276;DHT22;2661;50.786;12.728;2024-02-04T06:04:09;7.90;99.90
5276;DHT22;2661;50.786;12.728;2024-02-04T06:06:38;7.90;59.20
5276;DHT22;2661;50.786;12.728;2024-02-04T06:09:05;7.90;1.00
5276;DHT22;2661;50.786;12.728;2024-02-04T06:11:32;8.00;1.00
5276;DHT22;2661;50.786;12.728;2024-02-04T06:13:59;8.00;1.00
5276;DHT22;2661;50.786;12.728;2024-02-04T06:16:26;8.00;1.00
5276;DHT22;2661;50.786;12.728;2024-02-04T06:18:53;8.00;1.00
5276;DHT22;2661;50.786;12.728;2024-02-04T06:21:23;8.00;1.00
5276;DHT22;2661;50.786;12.728;2024-02-04T06:23:50;8.00;1.00
5276;DHT22;2661;50.786;12.728;2024-02-04T06:26:17;8.10;1.00
5276;DHT22;2661;50.786;12.728;2024-02-04T06:28:44;8.10;1.00
5276;DHT22;2661;50.786;12.728;2024-02-04T06:31:13;8.10;4.80
5276;DHT22;2661;50.786;12.728;2024-02-04T06:33:40;8.10;1.00
5276;DHT22;2661;50.786;12.728;2024-02-04T06:36:09;8.10;1.00
5276;DHT22;2661;50.786;12.728;2024-02-04T06:38:37;8.10;1.00
5276;DHT22;2661;50.786;12.728;2024-02-04T06:41:03;8.10;20.20
5276;DHT22;2661;50.786;12.728;2024-02-04T06:43:31;8.00;99.90
5276;DHT22;2661;50.786;12.728;2024-02-04T06:46:02;8.10;99.90
5276;DHT22;2661;50.786;12.728;2024-02-04T06:48:29;8.10;1.50
5276;DHT22;2661;50.786;12.728;2024-02-04T06:50:55;8.10;18.70
5276;DHT22;2661;50.786;12.728;2024-02-04T06:53:22;8.10;99.90
5276;DHT22;2661;50.786;12.728;2024-02-04T06:55:49;8.10;99.90
5276;DHT22;2661;50.786;12.728;2024-02-04T06:58:15;8.10;5.80
5276;DHT22;2661;50.786;12.728;2024-02-04T07:00:42;8.10;1.00
5276;DHT22;2661;50.786;12.728;2024-02-04T07:03:08;8.10;1.00
5276;DHT22;2661;50.786;12.728;2024-02-04T07:05:36;8.10;1.00
5276;DHT22;2661;50.786;12.728;2024-02-04T07:08:03;8.10;1.00
5276;DHT22;2661;50.786;12.728;2024-02-04T07:10:30;8.10;1.00
5276;DHT22;2661;50.786;12.728;2024-02-04T07:12:56;8.10;1.00
5276;DHT22;2661;50.786;12.728;2024-02-04T07:15:23;8.20;1.00
5276;DHT22;2661;50.786;12.728;2024-02-04T07:17:50;8.20;1.00
5276;DHT22;2661;50.786;12.728;2024-02-04T07:20:16;8.20;1.00
5276;DHT22;2661;50.786;12.728;2024-02-04T07:22:43;8.20;1.00
5276;DHT22;2661;50.786;12.728;2024-02-04T07:25:10;8.10;1.00
5276;DHT22;2661;50.786;12.728;2024-02-04T07:27:36;8.20;1.00
5276;DHT22;2661;50.786;12.728;2024-02-04T07:30:03;8.20;1.00
5276;DHT22;2661;50.786;12.728;2024-02-04T07:32:31;8.20;1.00
5276;DHT22;2661;50.786;12.728;2024-02-04T07:34:57;8.20;1.00
5276;DHT22;2661;50.786;12.728;2024-02-04T07:37:24;8.20;1.00
5276;DHT22;2661;50.786;12.728;2024-02-04T07:39:51;8.20;1.00
5276;DHT22;2661;50.786;12.728;2024-02-04T07:42:18;8.20;1.00
5276;DHT22;2661;50.786;12.728;2024-02-04T07:44:44;8.30;1.00
5276;DHT22;2661;50.786;12.728;2024-02-04T07:47:11;8.30;99.90
5276;DHT22;2661;50.786;12.728;2024-02-04T07:49:37;8.30;99.90
5276;DHT22;2661;50.786;12.728;2024-02-04T07:52:05;8.30;99.90
5276;DHT22;2661;50.786;12.728;2024-02-04T07:54:32;8.30;99.90
5276;DHT22;2661;50.786;12.728;2024-02-04T07:56:59;8.30;99.90
5276;DHT22;2661;50.786;12.728;2024-02-04T07:59:25;8.30;99.90
5276;DHT22;2661;50.786;12.728;2024-02-04T08:01:52;8.30;99.90
5276;DHT22;2661;50.786;12.728;2024-02-04T08:04:19;8.30;99.90
5276;DHT22;2661;50.786;12.728;2024-02-04T08:06:46;8.30;99.90
5276;DHT22;2661;50.786;12.728;2024-02-04T08:09:12;8.30;99.90
5276;DHT22;2661;50.786;12.728;2024-02-04T08:11:39;8.30;99.90
5276;DHT22;2661;50.786;12.728;2024-02-04T08:14:06;8.30;99.90
5276;DHT22;2661;50.786;12.728;2024-02-04T08:16:32;8.30;99.90
5276;DHT22;2661;50.786;12.728;2024-02-04T08:18:59;8.30;99.90
5276;DHT22;2661;50.786;12.728;2024-02-04T08:21:26;8.30;99.90
5276;DHT22;2661;50.786;12.728;2024-02-04T08:23:53;8.40;99.90
5276;DHT22;2661;50.786;12.728;2024-02-04T08:26:20;8.40;99.90
5276;DHT22;2661;50.786;12.728;2024-02-04T08:28:46;8.40;99.90
5276;DHT22;2661;50.786;12.728;2024-02-04T08:31:13;8.40;99.90
5276;DHT22;2661;50.786;12.728;2024-02-04T08:33:40;8.40;99.90
5276;DHT22;2661;50.786;12.728;2024-02-04T08:36:07;8.50;99.90
5276;DHT22;2661;50.786;12.728;2024-02-04T08:38:36;8.50;99.90
5276;DHT22;2661;50.786;12.728;2024-02-04T08:41:03;8.50;99.90
5276;DHT22;2661;50.786;12.728;2024-02-04T08:43:30;8.60;99.90
5276;DHT22;2661;50.786;12.728;2024-02-04T08:45:57;8.60;99.90
5276;DHT22;2661;50.786;12.728;2024-02-04T08:48:33;8.60;60.40
5276;DHT22;2661;50.786;12.728;2024-02-04T08:51:00;8.60;83.60
5276;DHT22;2661;50.786;12.728;2024-02-04T08:53:27;8.60;82.40
5276;DHT22;2661;50.786;12.728;2024-02-04T08:55:53;8.70;29.60
5276;DHT22;2661;50.786;12.728;2024-02-04T08:58:20;8.70;33.60
5276;DHT22;2661;50.786;12.728;2024-02-04T09:00:47;8.70;23.50
5276;DHT22;2661;50.786;12.728;2024-02-04T09:03:14;8.70;33.20
5276;DHT22;2661;50.786;12.728;2024-02-04T09:05:40;8.70;52.20
5276;DHT22;2661;50.786;12.728;2024-02-04T09:08:07;8.70;28.30
5276;DHT22;2661;50.786;12.728;2024-02-04T09:10:33;8.70;10.80
5276;DHT22;2661;50.786;12.728;2024-02-04T09:13:01;8.70;1.00
5276;DHT22;2661;50.786;12.728;2024-02-04T09:15:28;8.70;1.00
5276;DHT22;2661;50.786;12.728;2024-02-04T09:17:55;8.80;1.00
5276;DHT22;2661;50.786;12.728;2024-02-04T09:20:21;8.70;4.10
5276;DHT22;2661;50.786;12.728;2024-02-04T09:22:49;8.80;1.00
5276;DHT22;2661;50.786;12.728;2024-02-04T09:25:15;8.80;1.00
5276;DHT22;2661;50.786;12.728;2024-02-04T09:27:42;8.80;1.00
5276;DHT22;2661;50.786;12.728;2024-02-04T09:30:09;8.90;1.00
5276;DHT22;2661;50.786;12.728;2024-02-04T09:32:36;8.90;1.00
5276;DHT22;2661;50.786;12.728;2024-02-04T09:35:03;9.00;1.00
5276;DHT22;2661;50.786;12.728;2024-02-04T09:37:30;9.00;1.00
5276;DHT22;2661;50.786;12.728;2024-02-04T09:39:57;9.00;1.00
5276;DHT22;2661;50.786;12.728;2024-02-04T09:42:24;9.00;1.00
5276;DHT22;2661;50.786;12.728;2024-02-04T09:44:51;9.00;1.00
5276;DHT22;2661;50.786;12.728;2024-02-04T09:47:17;8.90;1.00
5276;DHT22;2661;50.786;12.728;2024-02-04T09:49:44;8.90;1.00
5276;DHT22;2661;50.786;12.728;2024-02-04T09:52:12;8.80;1.00
5276;DHT22;2661;50.786;12.728;2024-02-04T09:54:49;8.80;1.00
5276;DHT22;2661;50.786;12.728;2024-02-04T09:57:16;8.80;38.80
5276;DHT22;2661;50.786;12.728;2024-02-04T09:59:46;8.70;99.90
5276;DHT22;2661;50.786;12.728;2024-02-04T10:02:14;8.60;99.90
5276;DHT22;2661;50.786;12.728;2024-02-04T10:04:47;8.60;99.90
5276;DHT22;2661;50.786;12.728;2024-02-04T10:07:14;8.60;99.90
5276;DHT22;2661;50.786;12.728;2024-02-04T10:09:43;8.50;1.00
5276;DHT22;2661;50.786;12.728;2024-02-04T10:12:10;8.50;1.00
5276;DHT22;2661;50.786;12.728;2024-02-04T10:14:36;8.50;1.00
5276;DHT22;2661;50.786;12.728;2024-02-04T10:17:03;8.50;1.00
5276;DHT22;2661;50.786;12.728;2024-02-04T10:19:30;8.50;1.00
5276;DHT22;2661;50.786;12.728;2024-02-04T10:21:58;8.50;1.00
5276;DHT22;2661;50.786;12.728;2024-02-04T10:24:26;8.50;1.00
5276;DHT22;2661;50.786;12.728;2024-02-04T10:26:53;8.60;99.90
5276;DHT22;2661;50.786;12.728;2024-02-04T10:29:20;8.70;99.90
5276;DHT22;2661;50.786;12.728;2024-02-04T10:31:47;8.70;99.90
5276;DHT22;2661;50.786;12.728;2024-02-04T10:34:14;8.70;99.90
5276;DHT22;2661;50.786;12.728;2024-02-04T10:36:40;8.70;92.40
5276;DHT22;2661;50.786;12.728;2024-02-04T10:39:07;8.70;61.60
5276;DHT22;2661;50.786;12.728;2024-02-04T10:41:34;8.80;5.90
5276;DHT22;2661;50.786;12.728;2024-02-04T10:44:01;8.80;14.20
5276;DHT22;2661;50.786;12.728;2024-02-04T10:46:29;8.80;1.20
5276;DHT22;2661;50.786;12.728;2024-02-04T10:48:57;8.80;1.00
5276;DHT22;2661;50.786;12.728;2024-02-04T10:51:26;8.80;1.00
5276;DHT22;2661;50.786;12.728;2024-02-04T10:53:54;8.90;1.00
5276;DHT22;2661;50.786;12.728;2024-02-04T10:56:22;8.90;1.00
5276;DHT22;2661;50.786;12.728;2024-02-04T10:58:49;9.00;1.00
5276;DHT22;2661;50.786;12.728;2024-02-04T11:01:18;9.00;1.00
5276;DHT22;2661;50.786;12.728;2024-02-04T11:03:45;9.00;1.00
5276;DHT22;2661;50.786;12.728;2024-02-04T11:06:12;9.10;1.00
5276;DHT22;2661;50.786;12.728;2024-02-04T11:08:39;9.10;1.00
5276;DHT22;2661;50.786;12.728;2024-02-04T11:11:07;9.10;1.00
5276;DHT22;2661;50.786;12.728;2024-02-04T11:13:33;9.10;1.00
5276;DHT22;2661;50.786;12.728;2024-02-04T11:16:09;9.10;1.00
5276;DHT22;2661;50.786;12.728;2024-02-04T11:19:27;9.10;1.00
5276;DHT22;2661;50.786;12.728;2024-02-04T11:21:38;9.10;1.00
5276;DHT22;2661;50.786;12.728;2024-02-04T11:24:19;9.10;1.00
5276;DHT22;2661;50.786;12.728;2024-02-04T11:26:48;9.00;1.00
5276;DHT22;2661;50.786;12.728;2024-02-04T11:29:15;9.10;1.00
5276;DHT22;2661;50.786;12.728;2024-02-04T11:31:42;9.10;1.00
5276;DHT22;2661;50.786;12.728;2024-02-04T11:34:09;9.10;1.00
5276;DHT22;2661;50.786;12.728;2024-02-04T11:36:38;9.10;1.00
5276;DHT22;2661;50.786;12.728;2024-02-04T11:39:12;9.10;1.00
5276;DHT22;2661;50.786;12.728;2024-02-04T11:41:44;9.00;1.00
5276;DHT22;2661;50.786;12.728;2024-02-04T11:44:12;9.00;1.00
5276;DHT22;2661;50.786;12.728;2024-02-04T11:46:45;9.00;1.00
5276;DHT22;2661;50.786;12.728;2024-02-04T11:49:15;9.00;1.00
5276;DHT22;2661;50.786;12.728;2024-02-04T11:51:46;9.00;1.00
5276;DHT22;2661;50.786;12.728;2024-02-04T11:54:15;9.00;1.00
5276;DHT22;2661;50.786;12.728;2024-02-04T11:56:43;9.00;1.00
5276;DHT22;2661;50.786;12.728;2024-02-04T11:59:09;8.90;1.00
5276;DHT22;2661;50.786;12.728;2024-02-04T12:01:37;8.90;1.00
5276;DHT22;2661;50.786;12.728;2024-02-04T12:04:09;8.90;1.00
5276;DHT22;2661;50.786;12.728;2024-02-04T12:06:35;9.00;1.00
5276;DHT22;2661;50.786;12.728;2024-02-04T12:09:02;8.90;1.00
5276;DHT22;2661;50.786;12.728;2024-02-04T12:11:30;9.00;1.00
5276;DHT22;2661;50.786;12.728;2024-02-04T12:13:58;9.00;1.00
5276;DHT22;2661;50.786;12.728;2024-02-04T12:16:26;9.00;1.00
5276;DHT22;2661;50.786;12.728;2024-02-04T12:18:53;9.00;1.00
5276;DHT22;2661;50.786;12.728;2024-02-04T12:21:20;9.00;1.00
5276;DHT22;2661;50.786;12.728;2024-02-04T12:23:47;8.90;11.50
5276;DHT22;2661;50.786;12.728;2024-02-04T12:26:14;8.90;99.90
5276;DHT22;2661;50.786;12.728;2024-02-04T12:28:41;8.80;99.90
5276;DHT22;2661;50.786;12.728;2024-02-04T12:31:15;8.80;99.90
5276;DHT22;2661;50.786;12.728;2024-02-04T12:33:42;8.80;1.00
5276;DHT22;2661;50.786;12.728;2024-02-04T12:36:09;8.70;1.00
5276;DHT22;2661;50.786;12.728;2024-02-04T12:38:35;8.60;99.90
5276;DHT22;2661;50.786;12.728;2024-02-04T12:41:02;8.60;1.00
5276;DHT22;2661;50.786;12.728;2024-02-04T12:43:29;8.50;99.90
5276;DHT22;2661;50.786;12.728;2024-02-04T12:45:56;8.50;1.00
5276;DHT22;2661;50.786;12.728;2024-02-04T12:48:23;8.50;1.00
5276;DHT22;2661;50.786;12.728;2024-02-04T12:50:52;8.50;99.90
5276;DHT22;2661;50.786;12.728;2024-02-04T12:53:19;8.40;1.00
5276;DHT22;2661;50.786;12.728;2024-02-04T12:55:45;8.40;1.00
5276;DHT22;2661;50.786;12.728;2024-02-04T12:58:12;8.40;1.00
5276;DHT22;2661;50.786;12.728;2024-02-04T13:00:41;8.30;1.00
5276;DHT22;2661;50.786;12.728;2024-02-04T13:03:08;8.30;18.50
5276;DHT22;2661;50.786;12.728;2024-02-04T13:05:35;8.30;99.90
5276;DHT22;2661;50.786;12.728;2024-02-04T13:08:03;8.30;99.90
5276;DHT22;2661;50.786;12.728;2024-02-04T13:10:32;8.30;99.90
5276;DHT22;2661;50.786;12.728;2024-02-04T13:13:09;8.30;99.90
5276;DHT22;2661;50.786;12.728;2024-02-04T13:15:40;8.30;99.90
5276;DHT22;2661;50.786;12.728;2024-02-04T13:18:07;8.30;99.90
5276;DHT22;2661;50.786;12.728;2024-02-04T13:20:36;8.30;99.90
5276;DHT22;2661;50.786;12.728;2024-02-04T13:23:03;8.20;99.90
5276;DHT22;2661;50.786;12.728;2024-02-04T13:25:32;8.20;99.90
5276;DHT22;2661;50.786;12.728;2024-02-04T13:27:59;8.20;99.90
5276;DHT22;2661;50.786;12.728;2024-02-04T13:30:26;8.20;99.90
5276;DHT22;2661;50.786;12.728;2024-02-04T13:32:53;8.20;99.90
5276;DHT22;2661;50.786;12.728;2024-02-04T13:35:20;8.20;99.90
5276;DHT22;2661;50.786;12.728;2024-02-04T13:37:47;8.30;99.90
5276;DHT22;2661;50.786;12.728;2024-02-04T13:40:15;8.20;99.90
5276;DHT22;2661;50.786;12.728;2024-02-04T13:42:42;8.30;99.90
5276;DHT22;2661;50.786;12.728;2024-02-04T13:45:10;8.20;99.90
5276;DHT22;2661;50.786;12.728;2024-02-04T13:47:36;8.30;99.90
5276;DHT22;2661;50.786;12.728;2024-02-04T13:50:04;8.20;99.90
5276;DHT22;2661;50.786;12.728;2024-02-04T13:52:31;8.20;99.90
5276;DHT22;2661;50.786;12.728;2024-02-04T13:54:57;8.20;99.90
5276;DHT22;2661;50.786;12.728;2024-02-04T13:57:24;8.30;99.90
5276;DHT22;2661;50.786;12.728;2024-02-04T13:59:51;8.30;99.90
5276;DHT22;2661;50.786;12.728;2024-02-04T14:02:18;8.20;99.90
5276;DHT22;2661;50.786;12.728;2024-02-04T14:04:44;8.20;99.90
5276;DHT22;2661;50.786;12.728;2024-02-04T14:07:12;8.20;99.90
5276;DHT22;2661;50.786;12.728;2024-02-04T14:09:38;8.20;99.90
5276;DHT22;2661;50.786;12.728;2024-02-04T14:12:05;8.20;99.90
5276;DHT22;2661;50.786;12.728;2024-02-04T14:14:32;8.20;99.90
5276;DHT22;2661;50.786;12.728;2024-02-04T14:16:58;8.30;99.90
5276;DHT22;2661;50.786;12.728;2024-02-04T14:19:25;8.20;99.90
5276;DHT22;2661;50.786;12.728;2024-02-04T14:21:52;8.30;99.90
5276;DHT22;2661;50.786;12.728;2024-02-04T14:24:18;8.30;99.90
5276;DHT22;2661;50.786;12.728;2024-02-04T14:26:45;8.30;99.90
5276;DHT22;2661;50.786;12.728;2024-02-04T14:29:12;8.10;99.90
5276;DHT22;2661;50.786;12.728;2024-02-04T14:31:39;8.10;99.90
5276;DHT22;2661;50.786;12.728;2024-02-04T14:34:06;8.10;99.90
5276;DHT22;2661;50.786;12.728;2024-02-04T14:36:33;8.10;99.90
5276;DHT22;2661;50.786;12.728;2024-02-04T14:38:59;8.10;99.90
5276;DHT22;2661;50.786;12.728;2024-02-04T14:41:27;8.10;99.90
5276;DHT22;2661;50.786;12.728;2024-02-04T14:43:54;8.10;99.90
5276;DHT22;2661;50.786;12.728;2024-02-04T14:46:21;8.10;99.90
5276;DHT22;2661;50.786;12.728;2024-02-04T14:48:47;8.10;1.00
5276;DHT22;2661;50.786;12.728;2024-02-04T14:51:14;8.10;1.00
5276;DHT22;2661;50.786;12.728;2024-02-04T14:53:41;8.10;1.00
5276;DHT22;2661;50.786;12.728;2024-02-04T14:56:08;8.10;1.00
5276;DHT22;2661;50.786;12.728;2024-02-04T14:58:35;8.10;1.00
5276;DHT22;2661;50.786;12.728;2024-02-04T15:01:02;8.10;1.00
5276;DHT22;2661;50.786;12.728;2024-02-04T15:03:29;8.10;1.00
5276;DHT22;2661;50.786;12.728;2024-02-04T15:05:56;8.10;1.00
5276;DHT22;2661;50.786;12.728;2024-02-04T15:08:22;8.00;1.00
5276;DHT22;2661;50.786;12.728;2024-02-04T15:10:49;8.10;1.00
5276;DHT22;2661;50.786;12.728;2024-02-04T15:13:16;8.10;1.00
5276;DHT22;2661;50.786;12.728;2024-02-04T15:15:42;8.00;1.00
5276;DHT22;2661;50.786;12.728;2024-02-04T15:18:10;8.10;1.00
5276;DHT22;2661;50.786;12.728;2024-02-04T15:20:36;8.10;1.00
5276;DHT22;2661;50.786;12.728;2024-02-04T15:23:03;8.10;1.00
5276;DHT22;2661;50.786;12.728;2024-02-04T15:25:30;8.10;1.00
5276;DHT22;2661;50.786;12.728;2024-02-04T15:27:57;8.20;1.00
5276;DHT22;2661;50.786;12.728;2024-02-04T15:30:24;8.20;1.00
5276;DHT22;2661;50.786;12.728;2024-02-04T15:32:51;8.30;1.00
5276;DHT22;2661;50.786;12.728;2024-02-04T15:35:21;8.30;1.00
5276;DHT22;2661;50.786;12.728;2024-02-04T15:37:48;8.30;1.00
5276;DHT22;2661;50.786;12.728;2024-02-04T15:40:14;8.30;1.00
5276;DHT22;2661;50.786;12.728;2024-02-04T15:42:42;8.30;99.90
5276;DHT22;2661;50.786;12.728;2024-02-04T15:45:10;8.30;99.90
5276;DHT22;2661;50.786;12.728;2024-02-04T15:47:40;8.10;99.90
5276;DHT22;2661;50.786;12.728;2024-02-04T15:50:10;8.30;99.90
5276;DHT22;2661;50.786;12.728;2024-02-04T15:52:37;8.30;99.90
5276;DHT22;2661;50.786;12.728;2024-02-04T15:55:04;8.30;99.90
5276;DHT22;2661;50.786;12.728;2024-02-04T16:00:59;8.30;99.90
5276;DHT22;2661;50.786;12.728;2024-02-04T16:03:27;8.30;99.90
5276;DHT22;2661;50.786;12.728;2024-02-04T16:05:54;8.30;99.90
5276;DHT22;2661;50.786;12.728;2024-02-04T16:08:21;8.20;99.90
5276;DHT22;2661;50.786;12.728;2024-02-04T16:10:48;8.20;99.90
5276;DHT22;2661;50.786;12.728;2024-02-04T16:13:18;8.20;99.90
5276;DHT22;2661;50.786;12.728;2024-02-04T16:15:45;8.20;99.90